Time,TemperatureF,DewpointF,PressureIn,WindDirection,WindDirectionDegrees,WindSpeedMPH,WindSpeedGustMPH,Humidity,HourlyPrecipIn,Conditions,Clouds,dailyrainin,SoftwareType,DateUTC
2013-01-10 00:00:00,31.8,0.0,30.49,NW,312,6.6,10.0,0,0.00,,---,0.00,VWS V14.00,2013-01-10 05:00:00,
2013-01-10 00:01:00,31.8,0.0,30.49,NNW,329,0.0,10.0,0,0.00,,---,0.00,VWS V14.00,2013-01-10 05:01:00,
2013-01-10 00:02:00,42.1,0.0,29.96,WSW,253,6.3,0.0,0,0.00,,---,0.00,VWS V14.00,2013-01-10 05:02:00,
2013-01-10 00:03:00,31.8,0.0,30.49,West,270,3.3,10.0,0,0.00,,---,0.00,VWS V14.00,2013-01-10 05:03:00,
2013-01-10 00:04:00,31.9,0.0,30.49,WNW,297,6.3,10.0,0,0.00,,---,0.00,VWS V14.00,2013-01-10 05:04:00,
2013-01-10 00:05:00,31.9,0.0,30.49,NW,311,6.3,8.9,0,0.00,,---,0.00,VWS V14.00,2013-01-10 05:05:00,
2013-01-10 00:06:00,31.9,0.0,30.49,NW,321,0.0,8.9,0,0.00,,---,0.00,VWS V14.00,2013-01-10 05:06:00,
2013-01-10 00:07:00,42.1,0.0,29.96,WSW,248,11.1,16.7,0,0.00,,---,0.00,VWS V14.00,2013-01-10 05:07:00,
2013-01-10 00:08:00,31.9,0.0,30.49,WNW,287,5.3,8.9,0,0.00,,---,0.00,VWS V14.00,2013-01-10 05:08:00,
2013-01-10 00:12:00,42.0,0.0,29.97,WSW,246,0.0,14.7,0,0.00,,---,0.00,VWS V14.00,2013-01-10 05:12:00,
2013-01-10 00:17:00,41.7,0.0,29.97,West,260,0.0,16.5,0,0.00,,---,0.00,VWS V14.00,2013-01-10 05:17:00,
2013-01-10 00:22:00,41.8,0.0,29.97,SW,228,0.0,12.1,0,0.00,,---,0.00,VWS V14.00,2013-01-10 05:22:00,
2013-01-10 00:27:00,42.0,0.0,29.96,West,260,8.5,16.3,0,0.00,,---,0.00,VWS V14.00,2013-01-10 05:27:00,
2013-01-10 00:32:00,41.6,0.0,29.96,SW,217,0.0,13.2,0,0.00,,---,0.00,VWS V14.00,2013-01-10 05:32:00,
2013-01-10 00:37:00,41.8,0.0,29.96,South,174,0.0,9.4,0,0.00,,---,0.00,VWS V14.00,2013-01-10 05:37:00,
2013-01-10 00:42:00,41.9,0.0,29.97,West,260,0.0,9.6,0,0.00,,---,0.00,VWS V14.00,2013-01-10 05:42:00,
2013-01-10 00:47:00,41.9,0.0,29.97,West,278,0.0,11.2,0,0.00,,---,0.00,VWS V14.00,2013-01-10 05:47:00,
2013-01-10 00:52:00,41.7,0.0,29.97,WSW,255,0.0,12.4,0,0.00,,---,0.00,VWS V14.00,2013-01-10 05:52:00,
2013-01-10 00:57:00,41.7,0.0,29.97,West,264,7.3,13.4,0,0.00,,---,0.00,VWS V14.00,2013-01-10 05:57:00,
2013-01-10 01:02:00,41.8,0.0,29.97,West,281,9.9,15.4,0,0.00,,---,0.00,VWS V14.00,2013-01-10 06:02:00,
2013-01-10 01:07:00,42.0,0.0,29.97,West,269,0.0,14.2,0,0.00,,---,0.00,VWS V14.00,2013-01-10 06:07:00,
2013-01-10 01:12:00,41.7,0.0,29.97,West,269,0.0,20.4,0,0.00,,---,0.00,VWS V14.00,2013-01-10 06:12:00,
2013-01-10 01:17:00,41.8,0.0,29.98,West,269,0.0,0.0,0,0.00,,---,0.00,VWS V14.00,2013-01-10 06:17:00,
2013-01-10 01:22:00,41.6,0.0,29.98,West,269,0.0,0.0,0,0.00,,---,0.00,VWS V14.00,2013-01-10 06:22:00,
2013-01-10 01:27:00,41.3,0.0,29.98,West,269,0.0,0.0,0,0.00,,---,0.00,VWS V14.00,2013-01-10 06:27:00,
2013-01-10 01:32:00,41.7,0.0,29.99,West,269,0.0,0.0,0,0.00,,---,0.00,VWS V14.00,2013-01-10 06:32:00,
2013-01-10 01:37:00,41.4,0.0,29.99,West,269,0.0,0.0,0,0.00,,---,0.00,VWS V14.00,2013-01-10 06:37:00,
2013-01-10 01:42:00,41.7,0.0,29.99,West,269,0.0,0.0,0,0.00,,---,0.00,VWS V14.00,2013-01-10 06:42:00,
2013-01-10 01:47:00,41.7,0.0,29.99,West,269,0.0,0.0,0,0.00,,---,0.00,VWS V14.00,2013-01-10 06:47:00,
2013-01-10 01:52:00,41.7,0.0,29.99,West,269,0.0,0.0,0,0.00,,---,0.00,VWS V14.00,2013-01-10 06:52:00,
2013-01-10 01:57:00,41.6,0.0,29.99,West,269,0.0,0.0,0,0.00,,---,0.00,VWS V14.00,2013-01-10 06:57:00,
2013-01-10 02:02:00,41.9,0.0,29.99,SW,232,3.0,0.0,0,0.00,,---,0.00,VWS V14.00,2013-01-10 07:02:00,
2013-01-10 02:07:00,41.9,0.0,30.00,North,359,0.0,16.9,0,0.00,,---,0.00,VWS V14.00,2013-01-10 07:07:00,
2013-01-10 02:12:00,41.9,0.0,30.00,West,262,0.0,12.9,0,0.00,,---,0.00,VWS V14.00,2013-01-10 07:12:00,
2013-01-10 02:17:00,41.6,0.0,30.01,West,262,0.0,16.4,0,0.00,,---,0.00,VWS V14.00,2013-01-10 07:17:00,
2013-01-10 02:22:00,41.6,0.0,30.01,West,262,0.0,0.0,0,0.00,,---,0.00,VWS V14.00,2013-01-10 07:22:00,
2013-01-10 02:27:00,41.5,0.0,30.01,West,262,0.0,0.0,0,0.00,,---,0.00,VWS V14.00,2013-01-10 07:27:00,
2013-01-10 02:32:00,41.6,0.0,30.02,West,262,0.0,0.0,0,0.00,,---,0.00,VWS V14.00,2013-01-10 07:32:00,
2013-01-10 02:37:00,42.1,0.0,30.01,West,276,12.8,0.0,0,0.00,,---,0.00,VWS V14.00,2013-01-10 07:37:00,
2013-01-10 02:42:00,41.9,0.0,30.02,WSW,252,16.4,25.2,0,0.00,,---,0.00,VWS V14.00,2013-01-10 07:42:00,
2013-01-10 02:47:00,41.8,0.0,30.02,West,260,12.6,29.9,0,0.00,,---,0.00,VWS V14.00,2013-01-10 07:47:00,
2013-01-10 02:52:00,41.9,0.0,30.02,WSW,239,21.5,32.9,0,0.00,,---,0.00,VWS V14.00,2013-01-10 07:52:00,
2013-01-10 02:57:00,41.6,0.0,30.03,NW,305,17.2,33.4,0,0.00,,---,0.00,VWS V14.00,2013-01-10 07:57:00,
2013-01-10 03:02:00,41.9,0.0,30.03,West,270,11.0,32.6,0,0.00,,---,0.00,VWS V14.00,2013-01-10 08:02:00,
2013-01-10 03:07:00,41.6,0.0,30.04,West,260,12.0,28.6,0,0.00,,---,0.00,VWS V14.00,2013-01-10 08:07:00,
2013-01-10 03:12:00,41.4,0.0,30.04,West,274,16.2,39.5,0,0.00,,---,0.00,VWS V14.00,2013-01-10 08:12:00,
2013-01-10 03:17:00,41.0,0.0,30.05,WNW,283,19.9,30.1,0,0.00,,---,0.00,VWS V14.00,2013-01-10 08:17:00,
2013-01-10 03:22:00,41.1,0.0,30.05,WSW,243,22.4,23.9,0,0.00,,---,0.00,VWS V14.00,2013-01-10 08:22:00,
2013-01-10 03:27:00,41.2,0.0,30.05,WNW,295,9.5,28.6,0,0.00,,---,0.00,VWS V14.00,2013-01-10 08:27:00,
2013-01-10 03:32:00,41.0,0.0,30.06,West,277,9.4,28.0,0,0.00,,---,0.00,VWS V14.00,2013-01-10 08:32:00,
2013-01-10 03:37:00,40.9,0.0,30.06,WNW,300,13.5,29.5,0,0.00,,---,0.00,VWS V14.00,2013-01-10 08:37:00,
2013-01-10 03:42:00,40.3,0.0,30.06,WNW,290,7.8,22.9,0,0.00,,---,0.00,VWS V14.00,2013-01-10 08:42:00,
2013-01-10 03:47:00,40.3,0.0,30.07,NW,308,5.1,23.9,0,0.00,,---,0.00,VWS V14.00,2013-01-10 08:47:00,
2013-01-10 03:52:00,40.3,0.0,30.07,WNW,288,12.2,18.8,0,0.00,,---,0.00,VWS V14.00,2013-01-10 08:52:00,
2013-01-10 03:57:00,40.8,0.0,30.08,NW,308,15.8,24.4,0,0.00,,---,0.00,VWS V14.00,2013-01-10 08:57:00,
2013-01-10 04:02:00,40.9,0.0,30.08,WNW,285,7.8,27.6,0,0.00,,---,0.00,VWS V14.00,2013-01-10 09:02:00,
2013-01-10 04:07:00,40.1,0.0,30.08,WNW,288,9.1,27.9,0,0.00,,---,0.00,VWS V14.00,2013-01-10 09:07:00,
2013-01-10 04:12:00,40.1,0.0,30.09,WNW,302,9.7,23.0,0,0.00,,---,0.00,VWS V14.00,2013-01-10 09:12:00,
2013-01-10 04:17:00,40.2,0.0,30.10,WNW,291,24.3,28.8,0,0.00,,---,0.00,VWS V14.00,2013-01-10 09:17:00,
2013-01-10 04:22:00,40.5,0.0,30.10,WNW,285,12.7,28.5,0,0.00,,---,0.00,VWS V14.00,2013-01-10 09:22:00,
2013-01-10 04:27:00,40.3,0.0,30.10,WNW,302,7.9,26.4,0,0.00,,---,0.00,VWS V14.00,2013-01-10 09:27:00,
2013-01-10 04:32:00,40.2,0.0,30.11,WNW,288,10.3,22.5,0,0.00,,---,0.00,VWS V14.00,2013-01-10 09:32:00,
2013-01-10 04:37:00,40.2,0.0,30.11,WNW,301,10.4,26.0,0,0.00,,---,0.00,VWS V14.00,2013-01-10 09:37:00,
2013-01-10 04:42:00,40.3,0.0,30.11,SW,219,9.1,25.8,0,0.00,,---,0.00,VWS V14.00,2013-01-10 09:42:00,
2013-01-10 04:47:00,39.8,0.0,30.11,WNW,290,6.8,28.8,0,0.00,,---,0.00,VWS V14.00,2013-01-10 09:47:00,
2013-01-10 04:52:00,39.9,0.0,30.11,NW,312,13.6,19.9,0,0.00,,---,0.00,VWS V14.00,2013-01-10 09:52:00,
2013-01-10 04:57:00,39.7,0.0,30.12,NW,307,6.8,22.4,0,0.00,,---,0.00,VWS V14.00,2013-01-10 09:57:00,
2013-01-10 05:02:00,40.0,0.0,30.12,West,263,14.4,22.6,0,0.00,,---,0.00,VWS V14.00,2013-01-10 10:02:00,
2013-01-10 05:07:00,39.8,0.0,30.12,NW,308,14.2,28.6,0,0.00,,---,0.00,VWS V14.00,2013-01-10 10:07:00,
2013-01-10 05:12:00,40.2,0.0,30.12,NW,304,27.5,27.5,0,0.00,,---,0.00,VWS V14.00,2013-01-10 10:12:00,
2013-01-10 05:17:00,39.8,0.0,30.12,West,280,9.5,36.5,0,0.00,,---,0.00,VWS V14.00,2013-01-10 10:17:00,
2013-01-10 05:22:00,39.8,0.0,30.13,West,267,8.6,26.0,0,0.00,,---,0.00,VWS V14.00,2013-01-10 10:22:00,
2013-01-10 05:27:00,39.8,0.0,30.13,WNW,300,17.7,24.9,0,0.00,,---,0.00,VWS V14.00,2013-01-10 10:27:00,
2013-01-10 05:32:00,39.9,0.0,30.13,WNW,291,12.8,28.0,0,0.00,,---,0.00,VWS V14.00,2013-01-10 10:32:00,
2013-01-10 05:37:00,39.7,0.0,30.13,NW,307,12.0,30.1,0,0.00,,---,0.00,VWS V14.00,2013-01-10 10:37:00,
2013-01-10 05:42:00,39.7,0.0,30.13,WNW,283,8.1,24.4,0,0.00,,---,0.00,VWS V14.00,2013-01-10 10:42:00,
2013-01-10 05:47:00,39.7,0.0,30.13,NW,319,10.6,27.0,0,0.00,,---,0.00,VWS V14.00,2013-01-10 10:47:00,
2013-01-10 05:52:00,39.6,0.0,30.13,WNW,300,13.7,23.7,0,0.00,,---,0.00,VWS V14.00,2013-01-10 10:52:00,
2013-01-10 05:57:00,39.4,0.0,30.13,NW,319,14.0,30.1,0,0.00,,---,0.00,VWS V14.00,2013-01-10 10:57:00,
2013-01-10 06:02:00,39.2,0.0,30.13,WNW,287,12.7,25.8,0,0.00,,---,0.00,VWS V14.00,2013-01-10 11:02:00,
2013-01-10 06:07:00,39.5,0.0,30.14,NW,315,9.6,21.6,0,0.00,,---,0.00,VWS V14.00,2013-01-10 11:07:00,
2013-01-10 06:12:00,39.7,0.0,30.14,WNW,287,20.4,28.9,0,0.00,,---,0.00,VWS V14.00,2013-01-10 11:12:00,
2013-01-10 06:17:00,39.4,0.0,30.14,WNW,301,15.1,28.5,0,0.00,,---,0.00,VWS V14.00,2013-01-10 11:17:00,
2013-01-10 06:22:00,39.4,0.0,30.15,WNW,302,9.6,21.9,0,0.00,,---,0.00,VWS V14.00,2013-01-10 11:22:00,
2013-01-10 06:27:00,39.5,0.0,30.15,West,273,22.6,27.1,0,0.00,,---,0.00,VWS V14.00,2013-01-10 11:27:00,
2013-01-10 06:32:00,39.4,0.0,30.15,WNW,300,11.4,30.5,0,0.00,,---,0.00,VWS V14.00,2013-01-10 11:32:00,
2013-01-10 06:37:00,39.4,0.0,30.15,NW,307,18.7,25.0,0,0.00,,---,0.00,VWS V14.00,2013-01-10 11:37:00,
2013-01-10 06:42:00,39.4,0.0,30.15,WNW,301,13.9,25.0,0,0.00,,---,0.00,VWS V14.00,2013-01-10 11:42:00,
2013-01-10 06:47:00,39.3,0.0,30.16,NW,309,9.3,25.2,0,0.00,,---,0.00,VWS V14.00,2013-01-10 11:47:00,
2013-01-10 06:52:00,39.2,0.0,30.16,West,276,16.6,27.8,0,0.00,,---,0.00,VWS V14.00,2013-01-10 11:52:00,
2013-01-10 06:57:00,39.3,0.0,30.16,WNW,298,9.8,24.0,0,0.00,,---,0.00,VWS V14.00,2013-01-10 11:57:00,
2013-01-10 07:02:00,39.3,0.0,30.17,WNW,284,9.1,21.6,0,0.00,,---,0.00,VWS V14.00,2013-01-10 12:02:00,
2013-01-10 07:07:00,39.1,0.0,30.18,NW,308,13.4,24.3,0,0.00,,---,0.00,VWS V14.00,2013-01-10 12:07:00,
2013-01-10 07:12:00,39.3,0.0,30.18,WNW,301,12.1,22.5,0,0.00,,---,0.00,VWS V14.00,2013-01-10 12:12:00,
2013-01-10 07:17:00,39.2,0.0,30.18,NW,316,12.2,21.1,0,0.00,,---,0.00,VWS V14.00,2013-01-10 12:17:00,
2013-01-10 07:22:00,39.4,0.0,30.19,WNW,301,8.7,27.5,0,0.00,,---,0.00,VWS V14.00,2013-01-10 12:22:00,
2013-01-10 07:27:00,38.9,0.0,30.19,West,260,0.0,20.9,0,0.00,,---,0.00,VWS V14.00,2013-01-10 12:27:00,
2013-01-10 07:32:00,39.1,0.0,30.19,NW,308,8.9,12.1,0,0.00,,---,0.00,VWS V14.00,2013-01-10 12:32:00,
2013-01-10 07:37:00,39.2,0.0,30.20,NW,323,8.3,19.0,0,0.00,,---,0.00,VWS V14.00,2013-01-10 12:37:00,
2013-01-10 07:42:00,39.2,0.0,30.20,WNW,302,0.0,14.5,0,0.00,,---,0.00,VWS V14.00,2013-01-10 12:42:00,
2013-01-10 07:47:00,39.4,0.0,30.20,WNW,285,12.9,16.2,0,0.00,,---,0.00,VWS V14.00,2013-01-10 12:47:00,
2013-01-10 07:51:00,39.3,0.0,30.21,NW,311,14.0,20.8,0,0.00,,---,0.00,VWS V14.00,2013-01-10 12:51:00,
2013-01-10 07:56:00,39.4,0.0,30.21,NW,316,0.0,19.5,0,0.00,,---,0.00,VWS V14.00,2013-01-10 12:56:00,
2013-01-10 08:01:00,39.4,0.0,30.22,North,359,0.0,12.8,0,0.00,,---,0.00,VWS V14.00,2013-01-10 13:01:00,
2013-01-10 08:06:00,39.4,0.0,30.22,WNW,290,0.0,13.9,0,0.00,,---,0.00,VWS V14.00,2013-01-10 13:06:00,
2013-01-10 08:11:00,39.6,0.0,30.23,WSW,240,0.0,17.2,0,0.00,,---,0.00,VWS V14.00,2013-01-10 13:11:00,
2013-01-10 08:16:00,39.9,0.0,30.23,SW,236,7.5,15.4,0,0.00,,---,0.00,VWS V14.00,2013-01-10 13:16:00,
2013-01-10 08:21:00,39.9,0.0,30.23,NW,314,7.8,20.4,0,0.00,,---,0.00,VWS V14.00,2013-01-10 13:21:00,
2013-01-10 08:26:00,39.8,0.0,30.23,West,276,9.4,20.8,0,0.00,,---,0.00,VWS V14.00,2013-01-10 13:26:00,
2013-01-10 08:31:00,40.0,0.0,30.24,WNW,287,13.6,16.7,0,0.00,,---,0.00,VWS V14.00,2013-01-10 13:31:00,
2013-01-10 08:36:00,40.2,0.0,30.24,West,276,14.5,21.9,0,0.00,,---,0.00,VWS V14.00,2013-01-10 13:36:00,
2013-01-10 08:41:00,40.4,0.0,30.24,WNW,302,7.7,23.3,0,0.00,,---,0.00,VWS V14.00,2013-01-10 13:41:00,
2013-01-10 08:46:00,40.4,0.0,30.24,WNW,300,9.8,29.5,0,0.00,,---,0.00,VWS V14.00,2013-01-10 13:46:00,
2013-01-10 08:51:00,40.5,0.0,30.24,WSW,245,10.6,27.0,0,0.00,,---,0.00,VWS V14.00,2013-01-10 13:51:00,
2013-01-10 08:56:00,40.6,0.0,30.25,WNW,301,8.7,25.0,0,0.00,,---,0.00,VWS V14.00,2013-01-10 13:56:00,
2013-01-10 09:01:00,40.7,0.0,30.25,WNW,291,16.3,22.6,0,0.00,,---,0.00,VWS V14.00,2013-01-10 14:01:00,
2013-01-10 09:06:00,40.8,0.0,30.25,NNW,338,7.6,23.4,0,0.00,,---,0.00,VWS V14.00,2013-01-10 14:06:00,
2013-01-10 09:11:00,41.0,0.0,30.26,North,359,8.5,23.5,0,0.00,,---,0.00,VWS V14.00,2013-01-10 14:11:00,
2013-01-10 09:16:00,41.0,0.0,30.26,West,280,16.5,21.4,0,0.00,,---,0.00,VWS V14.00,2013-01-10 14:16:00,
2013-01-10 09:21:00,41.1,0.0,30.25,WNW,301,14.7,26.3,0,0.00,,---,0.00,VWS V14.00,2013-01-10 14:21:00,
2013-01-10 09:26:00,41.1,0.0,30.25,WSW,248,18.3,27.7,0,0.00,,---,0.00,VWS V14.00,2013-01-10 14:26:00,
2013-01-10 09:31:00,41.3,0.0,30.25,NNW,329,11.8,24.3,0,0.00,,---,0.00,VWS V14.00,2013-01-10 14:31:00,
2013-01-10 09:36:00,41.4,0.0,30.26,WNW,295,17.8,23.2,0,0.00,,---,0.00,VWS V14.00,2013-01-10 14:36:00,
2013-01-10 09:41:00,41.6,0.0,30.25,WSW,240,12.2,26.8,0,0.00,,---,0.00,VWS V14.00,2013-01-10 14:41:00,
2013-01-10 09:46:00,41.7,0.0,30.25,NW,304,17.3,25.8,0,0.00,,---,0.00,VWS V14.00,2013-01-10 14:46:00,
2013-01-10 09:51:00,41.9,0.0,30.26,NW,307,12.2,25.0,0,0.00,,---,0.00,VWS V14.00,2013-01-10 14:51:00,
2013-01-10 09:56:00,42.0,0.0,30.26,WNW,292,18.9,27.2,0,0.00,,---,0.00,VWS V14.00,2013-01-10 14:56:00,
2013-01-10 10:01:00,42.1,0.0,30.26,NW,307,12.8,28.8,0,0.00,,---,0.00,VWS V14.00,2013-01-10 15:01:00,
2013-01-10 10:06:00,42.4,0.0,30.26,NW,318,11.8,28.3,0,0.00,,---,0.00,VWS V14.00,2013-01-10 15:06:00,
2013-01-10 10:11:00,42.5,0.0,30.26,West,266,12.1,26.2,0,0.00,,---,0.00,VWS V14.00,2013-01-10 15:11:00,
2013-01-10 10:16:00,42.7,0.0,30.26,NW,322,20.6,27.5,0,0.00,,---,0.00,VWS V14.00,2013-01-10 15:16:00,
2013-01-10 10:21:00,42.7,0.0,30.26,WSW,249,14.1,29.0,0,0.00,,---,0.00,VWS V14.00,2013-01-10 15:21:00,
2013-01-10 10:26:00,43.2,0.0,30.26,WNW,295,29.6,29.6,0,0.00,,---,0.00,VWS V14.00,2013-01-10 15:26:00,
2013-01-10 10:31:00,43.5,0.0,30.26,WNW,283,14.9,33.6,0,0.00,,---,0.00,VWS V14.00,2013-01-10 15:31:00,
2013-01-10 10:36:00,43.8,0.0,30.26,WNW,283,10.4,32.1,0,0.00,,---,0.00,VWS V14.00,2013-01-10 15:36:00,
2013-01-10 10:41:00,44.0,0.0,30.27,WNW,292,21.9,29.6,0,0.00,,---,0.00,VWS V14.00,2013-01-10 15:41:00,
2013-01-10 10:46:00,44.0,0.0,30.27,WNW,295,21.4,29.1,0,0.00,,---,0.00,VWS V14.00,2013-01-10 15:46:00,
2013-01-10 10:51:00,44.4,0.0,30.27,West,281,17.1,29.4,0,0.00,,---,0.00,VWS V14.00,2013-01-10 15:51:00,
2013-01-10 10:56:00,44.6,0.0,30.27,NW,323,10.8,25.4,0,0.00,,---,0.00,VWS V14.00,2013-01-10 15:56:00,
2013-01-10 11:01:00,44.5,0.0,30.26,WNW,290,19.6,25.8,0,0.00,,---,0.00,VWS V14.00,2013-01-10 16:01:00,
2013-01-10 11:06:00,44.5,0.0,30.26,WNW,298,14.7,28.3,0,0.00,,---,0.00,VWS V14.00,2013-01-10 16:06:00,
2013-01-10 11:11:00,44.7,0.0,30.26,NW,309,10.4,25.9,0,0.00,,---,0.00,VWS V14.00,2013-01-10 16:11:00,
2013-01-10 11:16:00,44.8,0.0,30.26,WNW,294,8.5,24.7,0,0.00,,---,0.00,VWS V14.00,2013-01-10 16:16:00,
2013-01-10 11:21:00,44.8,0.0,30.26,WNW,290,12.6,27.3,0,0.00,,---,0.00,VWS V14.00,2013-01-10 16:21:00,
2013-01-10 11:26:00,44.6,0.0,30.26,WNW,291,11.4,22.6,0,0.00,,---,0.00,VWS V14.00,2013-01-10 16:26:00,
2013-01-10 11:31:00,44.9,0.0,30.26,NNW,336,19.8,26.1,0,0.00,,---,0.00,VWS V14.00,2013-01-10 16:31:00,
2013-01-10 11:36:00,45.1,0.0,30.26,West,274,22.1,24.7,0,0.00,,---,0.00,VWS V14.00,2013-01-10 16:36:00,
2013-01-10 11:41:00,45.0,0.0,30.26,NW,309,17.8,22.1,0,0.00,,---,0.00,VWS V14.00,2013-01-10 16:41:00,
2013-01-10 11:46:00,45.0,0.0,30.27,NW,307,19.6,21.7,0,0.00,,---,0.00,VWS V14.00,2013-01-10 16:46:00,
2013-01-10 11:51:00,44.8,0.0,30.27,NW,304,15.9,25.5,0,0.00,,---,0.00,VWS V14.00,2013-01-10 16:51:00,
2013-01-10 11:56:00,45.0,0.0,30.27,NW,321,16.7,25.3,0,0.00,,---,0.00,VWS V14.00,2013-01-10 16:56:00,
2013-01-10 12:01:00,44.9,0.0,30.27,West,270,16.3,23.9,0,0.00,,---,0.00,VWS V14.00,2013-01-10 17:01:00,
2013-01-10 12:06:00,45.0,0.0,30.27,NW,311,18.5,26.8,0,0.00,,---,0.00,VWS V14.00,2013-01-10 17:06:00,
2013-01-10 12:11:00,44.8,0.0,30.27,WNW,285,19.7,23.5,0,0.00,,---,0.00,VWS V14.00,2013-01-10 17:11:00,
2013-01-10 12:16:00,44.6,0.0,30.27,NW,307,13.7,29.3,0,0.00,,---,0.00,VWS V14.00,2013-01-10 17:16:00,
2013-01-10 12:21:00,44.8,0.0,30.26,NW,312,21.3,29.3,0,0.00,,---,0.00,VWS V14.00,2013-01-10 17:21:00,
2013-01-10 12:26:00,44.8,0.0,30.26,WNW,295,15.9,27.2,0,0.00,,---,0.00,VWS V14.00,2013-01-10 17:26:00,
2013-01-10 12:31:00,44.9,0.0,30.26,West,271,16.3,24.0,0,0.00,,---,0.00,VWS V14.00,2013-01-10 17:31:00,
2013-01-10 12:36:00,44.9,0.0,30.26,WNW,295,13.7,30.4,0,0.00,,---,0.00,VWS V14.00,2013-01-10 17:36:00,
2013-01-10 12:41:00,45.3,0.0,30.26,NW,308,7.8,26.2,0,0.00,,---,0.00,VWS V14.00,2013-01-10 17:41:00,
2013-01-10 12:46:00,45.2,0.0,30.27,NW,319,8.3,25.2,0,0.00,,---,0.00,VWS V14.00,2013-01-10 17:46:00,
2013-01-10 12:51:00,45.4,0.0,30.27,NW,323,9.0,19.0,0,0.00,,---,0.00,VWS V14.00,2013-01-10 17:51:00,
2013-01-10 12:56:00,45.3,0.0,30.27,WSW,238,11.3,18.3,0,0.00,,---,0.00,VWS V14.00,2013-01-10 17:56:00,
2013-01-10 13:01:00,45.3,0.0,30.27,WNW,295,16.8,22.4,0,0.00,,---,0.00,VWS V14.00,2013-01-10 18:01:00,
2013-01-10 13:06:00,45.2,0.0,30.28,WNW,283,11.9,24.4,0,0.00,,---,0.00,VWS V14.00,2013-01-10 18:06:00,
2013-01-10 13:11:00,45.3,0.0,30.28,WNW,287,6.5,27.1,0,0.00,,---,0.00,VWS V14.00,2013-01-10 18:11:00,
2013-01-10 13:16:00,45.5,0.0,30.29,NW,325,6.1,25.2,0,0.00,,---,0.00,VWS V14.00,2013-01-10 18:16:00,
2013-01-10 13:21:00,45.6,0.0,30.29,NW,311,10.3,19.4,0,0.00,,---,0.00,VWS V14.00,2013-01-10 18:21:00,
2013-01-10 13:26:00,45.8,0.0,30.30,WSW,242,9.9,15.5,0,0.00,,---,0.00,VWS V14.00,2013-01-10 18:26:00,
2013-01-10 13:31:00,45.6,0.0,30.30,WNW,283,0.0,21.3,0,0.00,,---,0.00,VWS V14.00,2013-01-10 18:31:00,
2013-01-10 13:36:00,45.5,0.0,30.30,WNW,298,9.4,16.2,0,0.00,,---,0.00,VWS V14.00,2013-01-10 18:36:00,
2013-01-10 13:41:00,45.1,0.0,30.30,NW,325,9.6,20.6,0,0.00,,---,0.00,VWS V14.00,2013-01-10 18:41:00,
2013-01-10 13:46:00,45.3,0.0,30.30,West,271,7.4,18.5,0,0.00,,---,0.00,VWS V14.00,2013-01-10 18:46:00,
2013-01-10 13:51:00,45.3,0.0,30.30,NW,322,0.0,17.5,0,0.00,,---,0.00,VWS V14.00,2013-01-10 18:51:00,
2013-01-10 13:56:00,45.1,0.0,30.30,WNW,285,16.6,19.7,0,0.00,,---,0.00,VWS V14.00,2013-01-10 18:56:00,
2013-01-10 14:01:00,44.7,0.0,30.31,WNW,283,9.9,23.1,0,0.00,,---,0.00,VWS V14.00,2013-01-10 19:01:00,
2013-01-10 14:06:00,44.8,0.0,30.31,WNW,284,0.0,23.7,0,0.00,,---,0.00,VWS V14.00,2013-01-10 19:06:00,
2013-01-10 14:11:00,44.6,0.0,30.31,WNW,285,10.4,23.9,0,0.00,,---,0.00,VWS V14.00,2013-01-10 19:11:00,
2013-01-10 14:16:00,44.7,0.0,30.32,NW,308,13.0,20.3,0,0.00,,---,0.00,VWS V14.00,2013-01-10 19:16:00,
2013-01-10 14:21:00,44.6,0.0,30.32,WNW,292,9.9,22.1,0,0.00,,---,0.00,VWS V14.00,2013-01-10 19:21:00,
2013-01-10 14:26:00,44.4,0.0,30.33,North,359,1.4,21.9,0,0.00,,---,0.00,VWS V14.00,2013-01-10 19:26:00,
2013-01-10 14:31:00,44.6,0.0,30.33,WNW,294,0.0,17.5,0,0.00,,---,0.00,VWS V14.00,2013-01-10 19:31:00,
2013-01-10 14:36:00,44.4,0.0,30.33,NW,322,0.0,17.1,0,0.00,,---,0.00,VWS V14.00,2013-01-10 19:36:00,
2013-01-10 14:41:00,44.4,0.0,30.33,NNW,330,7.0,21.2,0,0.00,,---,0.00,VWS V14.00,2013-01-10 19:41:00,
2013-01-10 14:46:00,44.2,0.0,30.33,NW,314,0.0,24.3,0,0.00,,---,0.00,VWS V14.00,2013-01-10 19:46:00,
2013-01-10 14:51:00,44.1,0.0,30.33,NW,318,9.6,16.5,0,0.00,,---,0.00,VWS V14.00,2013-01-10 19:51:00,
2013-01-10 14:56:00,44.0,0.0,30.34,West,277,11.3,17.8,0,0.00,,---,0.00,VWS V14.00,2013-01-10 19:56:00,
2013-01-10 15:01:00,43.8,0.0,30.34,WNW,298,12.2,17.3,0,0.00,,---,0.00,VWS V14.00,2013-01-10 20:01:00,
2013-01-10 15:06:00,43.8,0.0,30.34,West,271,12.2,15.7,0,0.00,,---,0.00,VWS V14.00,2013-01-10 20:06:00,
2013-01-10 15:11:00,43.7,0.0,30.34,WNW,297,7.8,16.5,0,0.00,,---,0.00,VWS V14.00,2013-01-10 20:11:00,
2013-01-10 15:16:00,43.5,0.0,30.34,WNW,295,12.8,18.0,0,0.00,,---,0.00,VWS V14.00,2013-01-10 20:16:00,
2013-01-10 15:21:00,43.4,0.0,30.34,NNE,24,4.7,16.8,0,0.00,,---,0.00,VWS V14.00,2013-01-10 20:21:00,
2013-01-10 15:26:00,43.2,0.0,30.35,WNW,302,4.1,20.1,0,0.00,,---,0.00,VWS V14.00,2013-01-10 20:26:00,
2013-01-10 15:31:00,43.0,0.0,30.35,North,359,2.4,16.5,0,0.00,,---,0.00,VWS V14.00,2013-01-10 20:31:00,
2013-01-10 15:36:00,42.7,0.0,30.35,WNW,292,10.5,15.0,0,0.00,,---,0.00,VWS V14.00,2013-01-10 20:36:00,
2013-01-10 15:41:00,42.5,0.0,30.35,WNW,284,8.2,16.5,0,0.00,,---,0.00,VWS V14.00,2013-01-10 20:41:00,
2013-01-10 15:46:00,42.3,0.0,30.36,NW,311,9.9,14.5,0,0.00,,---,0.00,VWS V14.00,2013-01-10 20:46:00,
2013-01-10 15:51:00,42.3,0.0,30.37,WSW,249,4.3,12.8,0,0.00,,---,0.00,VWS V14.00,2013-01-10 20:51:00,
2013-01-10 15:56:00,42.1,0.0,30.38,WNW,295,5.7,16.2,0,0.00,,---,0.00,VWS V14.00,2013-01-10 20:56:00,
2013-01-10 16:01:00,41.8,0.0,30.38,NW,319,9.1,13.8,0,0.00,,---,0.00,VWS V14.00,2013-01-10 21:01:00,
2013-01-10 16:06:00,41.9,0.0,30.37,West,280,6.6,16.5,0,0.00,,---,0.00,VWS V14.00,2013-01-10 21:06:00,
2013-01-10 16:11:00,41.5,0.0,30.36,West,271,13.2,17.0,0,0.00,,---,0.00,VWS V14.00,2013-01-10 21:11:00,
2013-01-10 16:16:00,41.1,0.0,30.36,West,281,15.8,18.8,0,0.00,,---,0.00,VWS V14.00,2013-01-10 21:16:00,
2013-01-10 16:21:00,41.2,0.0,30.36,WSW,245,12.4,21.9,0,0.00,,---,0.00,VWS V14.00,2013-01-10 21:21:00,
2013-01-10 16:26:00,40.8,0.0,30.36,West,276,11.7,21.7,0,0.00,,---,0.00,VWS V14.00,2013-01-10 21:26:00,
2013-01-10 16:31:00,40.6,0.0,30.37,NNW,330,8.7,18.2,0,0.00,,---,0.00,VWS V14.00,2013-01-10 21:31:00,
2013-01-10 16:36:00,40.3,0.0,30.39,NW,318,7.6,19.1,0,0.00,,---,0.00,VWS V14.00,2013-01-10 21:36:00,
2013-01-10 16:41:00,40.3,0.0,30.40,North,359,0.0,12.9,0,0.00,,---,0.00,VWS V14.00,2013-01-10 21:41:00,
2013-01-10 16:46:00,40.3,0.0,30.40,WNW,298,2.9,13.4,0,0.00,,---,0.00,VWS V14.00,2013-01-10 21:46:00,
2013-01-10 16:51:00,40.1,0.0,30.40,West,276,2.5,9.1,0,0.00,,---,0.00,VWS V14.00,2013-01-10 21:51:00,
2013-01-10 16:56:00,39.8,0.0,30.40,WNW,288,9.1,9.6,0,0.00,,---,0.00,VWS V14.00,2013-01-10 21:56:00,
2013-01-10 17:01:00,39.7,0.0,30.40,West,264,8.7,11.7,0,0.00,,---,0.00,VWS V14.00,2013-01-10 22:01:00,
2013-01-10 17:06:00,39.8,0.0,30.39,WNW,283,6.3,8.7,0,0.00,,---,0.00,VWS V14.00,2013-01-10 22:06:00,
2013-01-10 17:11:00,39.2,0.0,30.39,West,269,4.8,13.7,0,0.00,,---,0.00,VWS V14.00,2013-01-10 22:11:00,
2013-01-10 17:16:00,39.6,0.0,30.39,West,280,6.8,17.5,0,0.00,,---,0.00,VWS V14.00,2013-01-10 22:16:00,
2013-01-10 17:21:00,39.2,0.0,30.39,NW,309,6.0,16.8,0,0.00,,---,0.00,VWS V14.00,2013-01-10 22:21:00,
2013-01-10 17:26:00,38.7,0.0,30.41,SSW,205,0.0,13.0,0,0.00,,---,0.00,VWS V14.00,2013-01-10 22:26:00,
2013-01-10 17:31:00,38.7,0.0,30.41,NNW,328,6.1,6.1,0,0.00,,---,0.00,VWS V14.00,2013-01-10 22:31:00,
2013-01-10 17:36:00,39.0,0.0,30.41,NW,323,8.5,11.2,0,0.00,,---,0.00,VWS V14.00,2013-01-10 22:36:00,
2013-01-10 17:41:00,38.9,0.0,30.41,NW,315,6.5,15.1,0,0.00,,---,0.00,VWS V14.00,2013-01-10 22:41:00,
2013-01-10 17:46:00,38.7,0.0,30.41,NW,309,11.6,11.6,0,0.00,,---,0.00,VWS V14.00,2013-01-10 22:46:00,
2013-01-10 17:51:00,38.8,0.0,30.41,WNW,302,14.3,15.7,0,0.00,,---,0.00,VWS V14.00,2013-01-10 22:51:00,
2013-01-10 17:56:00,38.6,0.0,30.41,NW,315,7.3,17.7,0,0.00,,---,0.00,VWS V14.00,2013-01-10 22:56:00,
2013-01-10 18:01:00,38.7,0.0,30.41,NW,315,7.8,15.5,0,0.00,,---,0.00,VWS V14.00,2013-01-10 23:01:00,
2013-01-10 18:06:00,38.3,0.0,30.41,West,276,7.0,14.5,0,0.00,,---,0.00,VWS V14.00,2013-01-10 23:06:00,
2013-01-10 18:11:00,38.2,0.0,30.42,WSW,253,0.0,10.9,0,0.00,,---,0.00,VWS V14.00,2013-01-10 23:11:00,
2013-01-10 18:16:00,38.1,0.0,30.42,WNW,295,0.0,10.6,0,0.00,,---,0.00,VWS V14.00,2013-01-10 23:16:00,
2013-01-10 18:21:00,38.2,0.0,30.42,WNW,291,4.8,6.8,0,0.00,,---,0.00,VWS V14.00,2013-01-10 23:21:00,
2013-01-10 18:26:00,38.3,0.0,30.42,NW,308,0.0,13.2,0,0.00,,---,0.00,VWS V14.00,2013-01-10 23:26:00,
2013-01-10 18:31:00,38.3,0.0,30.43,WNW,288,5.5,10.7,0,0.00,,---,0.00,VWS V14.00,2013-01-10 23:31:00,
2013-01-10 18:36:00,38.1,0.0,30.43,NW,319,0.0,16.9,0,0.00,,---,0.00,VWS V14.00,2013-01-10 23:36:00,
2013-01-10 18:41:00,38.0,0.0,30.43,WSW,246,3.4,11.2,0,0.00,,---,0.00,VWS V14.00,2013-01-10 23:41:00,
2013-01-10 18:46:00,37.9,0.0,30.42,WNW,301,4.8,10.9,0,0.00,,---,0.00,VWS V14.00,2013-01-10 23:46:00,
2013-01-10 18:51:00,37.7,0.0,30.41,WNW,283,5.8,15.0,0,0.00,,---,0.00,VWS V14.00,2013-01-10 23:51:00,
2013-01-10 18:56:00,37.3,0.0,30.42,North,7,8.1,17.1,0,0.00,,---,0.00,VWS V14.00,2013-01-10 23:56:00,
2013-01-10 19:01:00,37.5,0.0,30.42,NW,308,5.8,12.3,0,0.00,,---,0.00,VWS V14.00,2013-01-11 00:01:00,
2013-01-10 19:06:00,37.4,0.0,30.42,NW,307,12.4,12.4,0,0.00,,---,0.00,VWS V14.00,2013-01-11 00:06:00,
2013-01-10 19:11:00,37.6,0.0,30.42,WNW,302,0.0,14.6,0,0.00,,---,0.00,VWS V14.00,2013-01-11 00:11:00,
2013-01-10 19:16:00,37.5,0.0,30.43,North,359,4.3,16.5,0,0.00,,---,0.00,VWS V14.00,2013-01-11 00:16:00,
2013-01-10 19:21:00,36.9,0.0,30.43,North,7,4.3,11.9,0,0.00,,---,0.00,VWS V14.00,2013-01-11 00:21:00,
2013-01-10 19:26:00,36.9,0.0,30.43,NW,308,5.2,10.9,0,0.00,,---,0.00,VWS V14.00,2013-01-11 00:26:00,
2013-01-10 19:31:00,36.9,0.0,30.45,West,278,0.0,10.0,0,0.00,,---,0.00,VWS V14.00,2013-01-11 00:31:00,
2013-01-10 19:36:00,36.7,0.0,30.45,NW,311,5.2,8.0,0,0.00,,---,0.00,VWS V14.00,2013-01-11 00:36:00,
2013-01-10 19:41:00,36.4,0.0,30.45,NW,325,3.4,6.7,0,0.00,,---,0.00,VWS V14.00,2013-01-11 00:41:00,
2013-01-10 19:46:00,36.5,0.0,30.44,NW,312,5.1,8.3,0,0.00,,---,0.00,VWS V14.00,2013-01-11 00:46:00,
2013-01-10 19:51:00,36.5,0.0,30.45,NNW,328,4.4,8.1,0,0.00,,---,0.00,VWS V14.00,2013-01-11 00:51:00,
2013-01-10 19:56:00,36.4,0.0,30.45,WNW,284,0.0,12.2,0,0.00,,---,0.00,VWS V14.00,2013-01-11 00:56:00,
2013-01-10 20:01:00,36.3,0.0,30.46,NNW,342,4.7,10.1,0,0.00,,---,0.00,VWS V14.00,2013-01-11 01:01:00,
2013-01-10 20:06:00,36.2,0.0,30.46,WNW,295,5.0,5.3,0,0.00,,---,0.00,VWS V14.00,2013-01-11 01:06:00,
2013-01-10 20:11:00,36.1,0.0,30.45,WNW,302,8.8,8.8,0,0.00,,---,0.00,VWS V14.00,2013-01-11 01:11:00,
2013-01-10 20:16:00,35.6,0.0,30.45,West,274,5.2,9.6,0,0.00,,---,0.00,VWS V14.00,2013-01-11 01:16:00,
2013-01-10 20:21:00,35.4,0.0,30.46,NW,326,6.7,8.5,0,0.00,,---,0.00,VWS V14.00,2013-01-11 01:21:00,
2013-01-10 20:26:00,35.3,0.0,30.46,West,281,4.8,7.1,0,0.00,,---,0.00,VWS V14.00,2013-01-11 01:26:00,
2013-01-10 20:32:00,35.6,0.0,30.46,NW,305,0.0,8.6,0,0.00,,---,0.00,VWS V14.00,2013-01-11 01:32:00,
2013-01-10 20:37:00,35.5,0.0,30.47,WNW,295,0.0,9.7,0,0.00,,---,0.00,VWS V14.00,2013-01-11 01:37:00,
2013-01-10 20:42:00,35.2,0.0,30.47,WNW,295,0.0,6.0,0,0.00,,---,0.00,VWS V14.00,2013-01-11 01:42:00,
2013-01-10 20:47:00,35.0,0.0,30.47,WNW,295,0.0,0.0,0,0.00,,---,0.00,VWS V14.00,2013-01-11 01:47:00,
2013-01-10 20:52:00,34.9,0.0,30.47,West,277,0.0,0.0,0,0.00,,---,0.00,VWS V14.00,2013-01-11 01:52:00,
2013-01-10 20:57:00,35.1,0.0,30.47,NW,312,3.5,3.5,0,0.00,,---,0.00,VWS V14.00,2013-01-11 01:57:00,
2013-01-10 21:02:00,35.1,0.0,30.48,NW,314,0.0,7.1,0,0.00,,---,0.00,VWS V14.00,2013-01-11 02:02:00,
2013-01-10 21:07:00,34.7,0.0,30.48,NW,314,0.0,5.3,0,0.00,,---,0.00,VWS V14.00,2013-01-11 02:07:00,
2013-01-10 21:12:00,34.6,0.0,30.48,NW,314,0.0,0.0,0,0.00,,---,0.00,VWS V14.00,2013-01-11 02:12:00,
2013-01-10 21:17:00,34.3,0.0,30.48,NW,314,0.0,0.0,0,0.00,,---,0.00,VWS V14.00,2013-01-11 02:17:00,
2013-01-10 21:22:00,34.1,0.0,30.48,NW,314,0.0,0.0,0,0.00,,---,0.00,VWS V14.00,2013-01-11 02:22:00,
2013-01-10 21:27:00,34.1,0.0,30.48,NW,314,0.0,0.0,0,0.00,,---,0.00,VWS V14.00,2013-01-11 02:27:00,
2013-01-10 21:32:00,34.6,0.0,30.49,NW,314,0.0,0.0,0,0.00,,---,0.00,VWS V14.00,2013-01-11 02:32:00,
2013-01-10 21:37:00,34.2,0.0,30.49,NW,314,0.0,0.0,0,0.00,,---,0.00,VWS V14.00,2013-01-11 02:37:00,
2013-01-10 21:42:00,34.1,0.0,30.49,NW,314,0.0,0.0,0,0.00,,---,0.00,VWS V14.00,2013-01-11 02:42:00,
2013-01-10 21:47:00,34.0,0.0,30.50,NW,314,0.0,0.0,0,0.00,,---,0.00,VWS V14.00,2013-01-11 02:47:00,
2013-01-10 21:52:00,34.1,0.0,30.49,NW,314,0.0,0.0,0,0.00,,---,0.00,VWS V14.00,2013-01-11 02:52:00,
2013-01-10 21:57:00,34.0,0.0,30.49,NW,314,0.0,0.0,0,0.00,,---,0.00,VWS V14.00,2013-01-11 02:57:00,
2013-01-10 22:02:00,33.9,0.0,30.50,NW,314,0.0,0.0,0,0.00,,---,0.00,VWS V14.00,2013-01-11 03:02:00,
2013-01-10 22:07:00,34.1,0.0,30.50,West,273,0.0,0.0,0,0.00,,---,0.00,VWS V14.00,2013-01-11 03:07:00,
2013-01-10 22:12:00,34.0,0.0,30.50,West,273,0.0,3.4,0,0.00,,---,0.00,VWS V14.00,2013-01-11 03:12:00,
2013-01-10 22:17:00,33.7,0.0,30.51,West,273,0.0,0.0,0,0.00,,---,0.00,VWS V14.00,2013-01-11 03:17:00,
2013-01-10 22:22:00,33.1,0.0,30.51,West,273,0.0,0.0,0,0.00,,---,0.00,VWS V14.00,2013-01-11 03:22:00,
2013-01-10 22:27:00,33.1,0.0,30.51,West,273,0.0,0.0,0,0.00,,---,0.00,VWS V14.00,2013-01-11 03:27:00,
2013-01-10 22:32:00,32.8,0.0,30.51,West,273,0.0,0.0,0,0.00,,---,0.00,VWS V14.00,2013-01-11 03:32:00,
2013-01-10 22:37:00,33.0,0.0,30.51,WNW,284,0.0,0.0,0,0.00,,---,0.00,VWS V14.00,2013-01-11 03:37:00,
2013-01-10 22:42:00,33.0,0.0,30.51,NW,311,0.0,4.2,0,0.00,,---,0.00,VWS V14.00,2013-01-11 03:42:00,
2013-01-10 22:47:00,32.9,0.0,30.51,NW,311,0.0,7.3,0,0.00,,---,0.00,VWS V14.00,2013-01-11 03:47:00,
2013-01-10 22:52:00,32.9,0.0,30.51,NW,311,0.0,0.0,0,0.00,,---,0.00,VWS V14.00,2013-01-11 03:52:00,
2013-01-10 22:57:00,32.7,0.0,30.51,NW,311,0.0,0.0,0,0.00,,---,0.00,VWS V14.00,2013-01-11 03:57:00,
2013-01-10 23:02:00,32.6,0.0,30.51,NW,311,0.0,0.0,0,0.00,,---,0.00,VWS V14.00,2013-01-11 04:02:00,
2013-01-10 23:07:00,32.7,0.0,30.51,West,281,0.0,0.0,0,0.00,,---,0.00,VWS V14.00,2013-01-11 04:07:00,
2013-01-10 23:12:00,32.5,0.0,30.50,West,281,0.0,3.2,0,0.00,,---,0.00,VWS V14.00,2013-01-11 04:12:00,
2013-01-10 23:17:00,32.3,0.0,30.50,West,281,0.0,0.0,0,0.00,,---,0.00,VWS V14.00,2013-01-11 04:17:00,
2013-01-10 23:22:00,32.2,0.0,30.50,NW,309,0.0,0.0,0,0.00,,---,0.00,VWS V14.00,2013-01-11 04:22:00,
2013-01-10 23:27:00,32.3,0.0,30.50,NW,309,0.0,6.3,0,0.00,,---,0.00,VWS V14.00,2013-01-11 04:27:00,
2013-01-10 23:32:00,32.3,0.0,30.50,NW,309,0.0,0.0,0,0.00,,---,0.00,VWS V14.00,2013-01-11 04:32:00,
2013-01-10 23:37:00,32.1,0.0,30.50,NW,309,0.0,0.0,0,0.00,,---,0.00,VWS V14.00,2013-01-11 04:37:00,
2013-01-10 23:42:00,31.9,0.0,30.49,NW,309,0.0,0.0,0,0.00,,---,0.00,VWS V14.00,2013-01-11 04:42:00,
2013-01-10 23:47:00,31.8,0.0,30.49,NW,309,0.0,0.0,0,0.00,,---,0.00,VWS V14.00,2013-01-11 04:47:00,
2013-01-10 23:52:00,31.8,0.0,30.49,West,267,3.2,0.0,0,0.00,,---,0.00,VWS V14.00,2013-01-11 04:52:00,